createdAt,value
2022-12-23T00:00:26.036Z,9.64
2022-12-23T00:02:52.866Z,9.71
2022-12-23T00:05:19.423Z,9.62
2022-12-23T00:07:45.897Z,9.63
2022-12-23T00:10:12.545Z,9.71
2022-12-23T00:12:57.757Z,9.69
2022-12-23T00:15:24.240Z,9.59
2022-12-23T00:17:50.668Z,9.62
2022-12-23T00:20:17.193Z,9.59
2022-12-23T00:23:02.242Z,9.57
2022-12-23T00:25:40.813Z,9.64
2022-12-23T00:28:10.408Z,9.71
2022-12-23T00:30:38.514Z,9.67
2022-12-23T00:33:05.341Z,9.64
2022-12-23T00:35:32.460Z,9.66
2022-12-23T00:38:00.378Z,9.64
2022-12-23T00:40:45.538Z,9.60
2022-12-23T00:43:11.962Z,9.62
2022-12-23T00:45:38.569Z,9.59
2022-12-23T00:48:23.743Z,9.60
2022-12-23T00:50:52.870Z,9.56
2022-12-23T00:53:20.523Z,9.57
2022-12-23T00:55:47.823Z,9.63
2022-12-23T01:00:54.484Z,9.66
2022-12-23T01:03:39.613Z,9.63
2022-12-23T01:06:06.318Z,9.64
2022-12-23T01:08:32.754Z,9.64
2022-12-23T01:11:03.821Z,9.70
2022-12-23T01:13:30.255Z,9.71
2022-12-23T01:16:05.817Z,9.81
2022-12-23T01:18:37.546Z,9.91
2022-12-23T01:21:10.576Z,10.05
2022-12-23T01:23:37.600Z,10.05
2022-12-23T01:26:06.253Z,10.15
2022-12-23T01:28:33.564Z,10.25
2022-12-23T01:31:01.165Z,10.28
2022-12-23T01:33:27.990Z,10.33
2022-12-23T01:36:04.762Z,10.35
2022-12-23T01:38:31.444Z,10.48
2022-12-23T01:40:58.313Z,10.52
2022-12-23T01:43:45.453Z,10.55
2022-12-23T01:46:11.875Z,10.52
2022-12-23T01:48:39.886Z,10.58
2022-12-23T01:51:12.242Z,10.55
2022-12-23T01:53:44.311Z,10.58
2022-12-23T01:56:16.983Z,10.56
2022-12-23T01:58:48.241Z,10.46
2022-12-23T02:01:34.286Z,10.46
2022-12-23T02:04:06.033Z,10.45
2022-12-23T02:07:00.604Z,10.45
2022-12-23T02:09:30.342Z,10.50
2022-12-23T02:12:18.520Z,10.53
2022-12-23T02:15:23.381Z,10.45
2022-12-23T02:18:08.343Z,10.29
2022-12-23T02:21:04.057Z,10.26
2022-12-23T02:24:07.454Z,10.21
2022-12-23T02:27:09.671Z,10.17
2022-12-23T02:30:14.059Z,10.20
2022-12-23T02:33:05.399Z,10.20
2022-12-23T02:35:43.963Z,10.25
2022-12-23T02:38:15.635Z,10.28
2022-12-23T02:40:53.175Z,10.38
2022-12-23T02:43:31.424Z,10.38
2022-12-23T02:46:24.003Z,10.41
2022-12-23T02:48:56.607Z,10.49
2022-12-23T02:51:34.359Z,10.45
2022-12-23T02:54:05.033Z,10.42
2022-12-23T02:56:35.275Z,10.46
2022-12-23T02:59:10.337Z,10.45
2022-12-23T03:01:37.935Z,10.50
2022-12-23T03:04:06.774Z,10.50
2022-12-23T03:06:39.476Z,10.53
2022-12-23T03:09:06.093Z,10.53
2022-12-23T03:11:40.136Z,10.56
2022-12-23T03:14:34.844Z,10.63
2022-12-23T03:17:19.351Z,10.62
2022-12-23T03:19:59.596Z,10.60
2022-12-23T03:22:36.851Z,10.63
2022-12-23T03:25:18.154Z,10.62
2022-12-23T03:28:20.244Z,10.65
2022-12-23T03:30:52.742Z,10.68
2022-12-23T03:33:33.789Z,10.69
2022-12-23T03:36:09.666Z,10.69
2022-12-23T03:38:39.370Z,10.58
2022-12-23T03:41:13.767Z,10.45
2022-12-23T03:43:50.602Z,10.39
2022-12-23T03:46:22.880Z,10.32
2022-12-23T03:48:53.938Z,10.28
2022-12-23T03:51:27.971Z,10.32
2022-12-23T03:54:16.631Z,10.33
2022-12-23T03:56:53.900Z,10.37
2022-12-23T03:59:27.063Z,10.29
2022-12-23T04:02:26.963Z,10.29
2022-12-23T04:05:18.850Z,10.21
2022-12-23T04:07:54.669Z,10.20
2022-12-23T04:10:22.673Z,10.18
2022-12-23T04:12:49.694Z,10.17
2022-12-23T04:15:21.635Z,10.18
2022-12-23T04:17:49.298Z,10.17
2022-12-23T04:20:16.191Z,10.26
2022-12-23T04:22:43.517Z,10.37
2022-12-23T04:25:14.375Z,10.39
2022-12-23T04:27:41.433Z,10.45
2022-12-23T04:30:10.569Z,10.50
2022-12-23T04:32:37.510Z,10.49
2022-12-23T04:35:04.259Z,10.49
2022-12-23T04:37:30.680Z,10.52
2022-12-23T04:39:57.177Z,10.48
2022-12-23T04:42:23.772Z,10.49
2022-12-23T04:44:50.323Z,10.49
2022-12-23T04:47:16.966Z,10.55
2022-12-23T04:49:43.619Z,10.52
2022-12-23T04:52:10.087Z,10.53
2022-12-23T04:54:40.604Z,10.53
2022-12-23T04:57:10.615Z,10.53
2022-12-23T04:59:37.017Z,10.56
2022-12-23T05:02:03.631Z,10.56
2022-12-23T05:04:30.286Z,10.53
2022-12-23T05:06:56.748Z,10.60
2022-12-23T05:09:23.346Z,10.62
2022-12-23T05:11:49.769Z,10.66
2022-12-23T05:14:16.207Z,10.65
2022-12-23T05:16:42.812Z,10.69
2022-12-23T05:19:10.587Z,10.68
2022-12-23T05:21:36.986Z,10.73
2022-12-23T05:24:03.551Z,10.68
2022-12-23T05:26:30.071Z,10.63
2022-12-23T05:28:56.451Z,10.60
2022-12-23T05:31:22.988Z,10.63
2022-12-23T05:33:49.539Z,10.60
2022-12-23T05:36:16.018Z,10.56
2022-12-23T05:38:42.410Z,10.52
2022-12-23T05:41:08.853Z,10.56
2022-12-23T05:43:35.346Z,10.53
2022-12-23T05:46:01.855Z,10.53
2022-12-23T05:48:28.287Z,10.55
2022-12-23T05:50:54.867Z,10.53
2022-12-23T05:53:21.852Z,10.58
2022-12-23T05:55:48.571Z,10.55
2022-12-23T05:58:16.565Z,10.58
2022-12-23T06:00:43.458Z,10.62
2022-12-23T06:03:10.476Z,10.56
2022-12-23T06:05:38.860Z,10.53
2022-12-23T06:08:05.795Z,10.53
2022-12-23T06:10:32.260Z,10.53
2022-12-23T06:12:58.772Z,10.52
2022-12-23T06:15:25.150Z,10.59
2022-12-23T06:17:51.634Z,10.59
2022-12-23T06:20:20.762Z,10.59
2022-12-23T06:22:47.786Z,10.55
2022-12-23T06:25:14.241Z,10.58
2022-12-23T06:27:40.858Z,10.62
2022-12-23T06:30:08.017Z,10.62
2022-12-23T06:32:38.122Z,10.59
2022-12-23T06:35:05.639Z,10.66
2022-12-23T06:37:32.095Z,10.62
2022-12-23T06:39:58.499Z,10.60
2022-12-23T06:42:26.290Z,10.63
2022-12-23T06:44:52.725Z,10.60
2022-12-23T06:47:19.218Z,10.59
2022-12-23T06:49:46.214Z,10.63
2022-12-23T06:52:12.707Z,10.62
2022-12-23T06:54:39.138Z,10.63
2022-12-23T06:57:05.644Z,10.65
2022-12-23T06:59:32.185Z,10.66
2022-12-23T07:01:58.743Z,10.62
2022-12-23T07:04:25.285Z,10.63
2022-12-23T07:06:51.715Z,10.59
2022-12-23T07:09:18.297Z,10.59
2022-12-23T07:11:44.726Z,10.69
2022-12-23T07:14:11.883Z,10.70
2022-12-23T07:16:38.384Z,10.72
2022-12-23T07:19:04.915Z,10.70
2022-12-23T07:21:31.407Z,10.76
2022-12-23T07:23:57.848Z,10.76
2022-12-23T07:26:24.607Z,10.76
2022-12-23T07:28:51.010Z,10.77
2022-12-23T07:32:34.618Z,10.69
2022-12-23T07:35:01.625Z,10.63
2022-12-23T07:37:28.029Z,10.63
2022-12-23T07:39:54.563Z,10.62
2022-12-23T07:45:07.937Z,10.62
2022-12-23T07:47:34.387Z,10.63
2022-12-23T07:50:00.773Z,10.65
2022-12-23T07:52:29.145Z,10.68
2022-12-23T07:54:55.620Z,10.75
2022-12-23T07:57:22.026Z,10.66
2022-12-23T07:59:48.424Z,10.66
2022-12-23T08:02:15.041Z,10.72
2022-12-23T08:04:46.033Z,10.66
2022-12-23T08:07:13.199Z,10.77
2022-12-23T08:09:39.659Z,10.72
2022-12-23T08:12:06.344Z,10.62
2022-12-23T08:14:32.769Z,10.63
2022-12-23T08:17:00.575Z,10.56
2022-12-23T08:19:27.235Z,10.60
2022-12-23T08:21:53.596Z,10.68
2022-12-23T08:24:20.453Z,10.66
2022-12-23T08:26:46.944Z,10.63
2022-12-23T08:29:13.312Z,10.76
2022-12-23T08:31:39.783Z,10.62
2022-12-23T08:34:06.208Z,10.68
2022-12-23T08:36:34.891Z,10.48
2022-12-23T08:39:05.595Z,10.49
2022-12-23T08:41:36.562Z,10.44
2022-12-23T08:44:03.713Z,10.42
2022-12-23T08:46:30.415Z,10.49
2022-12-23T08:48:57.113Z,10.44
2022-12-23T08:51:25.155Z,10.33
2022-12-23T08:53:59.840Z,10.32
2022-12-23T08:56:30.430Z,10.33
2022-12-23T08:58:57.627Z,10.33
2022-12-23T09:01:27.621Z,10.50
2022-12-23T09:03:54.458Z,10.41
2022-12-23T09:06:28.861Z,10.31
2022-12-23T09:08:56.404Z,10.42
2022-12-23T09:11:25.050Z,10.44
2022-12-23T09:13:51.724Z,10.50
2022-12-23T09:16:18.840Z,10.39
2022-12-23T09:18:48.280Z,10.35
2022-12-23T09:21:17.888Z,10.33
2022-12-23T09:23:44.299Z,10.31
2022-12-23T09:26:11.242Z,10.38
2022-12-23T09:28:39.320Z,10.35
2022-12-23T09:31:10.456Z,10.60
2022-12-23T09:33:38.087Z,10.46
2022-12-23T09:36:06.105Z,10.42
2022-12-23T09:38:33.640Z,10.45
2022-12-23T09:41:17.180Z,10.42
2022-12-23T09:44:12.914Z,10.38
2022-12-23T09:47:05.081Z,10.38
2022-12-23T09:49:34.513Z,10.38
2022-12-23T09:52:05.363Z,10.39
2022-12-23T09:54:46.487Z,10.38
2022-12-23T09:57:23.623Z,10.37
2022-12-23T10:00:03.163Z,10.35
2022-12-23T10:02:54.071Z,10.45
2022-12-23T10:05:46.968Z,10.35
2022-12-23T10:08:38.249Z,10.46
2022-12-23T10:11:18.729Z,10.50
2022-12-23T10:14:23.318Z,10.58
2022-12-23T10:16:54.851Z,10.58
2022-12-23T10:19:41.601Z,10.60
2022-12-23T10:22:26.384Z,10.65
2022-12-23T10:24:55.601Z,10.70
2022-12-23T10:27:41.400Z,10.63
2022-12-23T10:30:34.390Z,10.59
2022-12-23T10:33:02.056Z,10.50
2022-12-23T10:36:05.852Z,10.48
2022-12-23T10:38:47.676Z,10.50
2022-12-23T10:41:51.520Z,10.41
2022-12-23T10:44:48.435Z,10.35
2022-12-23T10:47:14.740Z,10.46
2022-12-23T10:50:08.596Z,10.41
2022-12-23T10:52:40.194Z,10.41
2022-12-23T10:55:20.083Z,10.38
2022-12-23T10:57:46.892Z,10.35
2022-12-23T11:00:20.640Z,10.44
2022-12-23T11:03:07.175Z,10.39
2022-12-23T11:05:34.468Z,10.39
2022-12-23T11:08:02.168Z,10.45
2022-12-23T11:10:35.001Z,10.49
2022-12-23T11:13:01.803Z,10.49
2022-12-23T11:15:30.622Z,10.46
2022-12-23T11:18:12.284Z,10.45
2022-12-23T11:20:44.207Z,10.65
2022-12-23T11:23:35.839Z,10.66
2022-12-23T11:26:07.121Z,10.56
2022-12-23T11:28:39.629Z,10.63
2022-12-23T11:31:09.698Z,10.58
2022-12-23T11:33:40.007Z,10.50
2022-12-23T11:36:12.622Z,10.41
2022-12-23T11:38:59.091Z,10.41
2022-12-23T11:41:29.246Z,10.37
2022-12-23T11:44:00.730Z,10.26
2022-12-23T11:46:29.974Z,10.18
2022-12-23T11:49:22.140Z,10.12
2022-12-23T11:52:13.787Z,10.08
2022-12-23T11:54:40.698Z,10.01
2022-12-23T11:57:17.876Z,9.95
2022-12-23T11:59:49.144Z,9.94
2022-12-23T12:02:31.315Z,9.95
2022-12-23T12:05:02.264Z,9.93
2022-12-23T12:07:30.732Z,9.86
2022-12-23T12:09:59.509Z,9.86
2022-12-23T12:12:27.513Z,9.81
2022-12-23T12:14:56.623Z,9.74
2022-12-23T12:17:36.181Z,9.76
2022-12-23T12:20:05.843Z,9.86
2022-12-23T12:22:57.466Z,9.81
2022-12-23T12:25:41.335Z,9.80
2022-12-23T12:28:14.631Z,9.73
2022-12-23T12:30:50.619Z,9.69
2022-12-23T12:33:39.545Z,9.71
2022-12-23T12:36:32.948Z,9.69
2022-12-23T12:39:00.216Z,9.70
2022-12-23T12:41:37.528Z,9.70
2022-12-23T12:44:25.005Z,9.67
2022-12-23T12:46:58.300Z,9.60
2022-12-23T12:49:53.826Z,9.56
2022-12-23T12:52:23.872Z,9.57
2022-12-23T12:55:06.112Z,9.56
2022-12-23T12:57:35.703Z,9.50
2022-12-23T13:00:06.983Z,9.52
2022-12-23T13:02:46.362Z,9.54
2022-12-23T13:05:13.174Z,9.59
2022-12-23T13:07:57.815Z,9.57
2022-12-23T13:10:34.165Z,9.57
2022-12-23T13:13:17.736Z,9.52
2022-12-23T13:15:48.981Z,9.50
2022-12-23T13:18:36.887Z,9.47
2022-12-23T13:21:06.268Z,9.47
2022-12-23T13:23:46.397Z,9.50
2022-12-23T13:26:38.090Z,9.49
2022-12-23T13:29:41.388Z,9.46
2022-12-23T13:32:28.471Z,9.44
2022-12-23T13:35:15.860Z,9.54
2022-12-23T13:38:04.803Z,9.46
2022-12-23T13:40:43.308Z,9.42
2022-12-23T13:43:14.725Z,9.44
2022-12-23T13:45:42.445Z,9.49
2022-12-23T13:48:40.472Z,9.44
2022-12-23T13:51:13.353Z,9.52
2022-12-23T13:54:08.688Z,9.49
2022-12-23T13:56:47.451Z,9.49
2022-12-23T13:59:16.392Z,9.53
2022-12-23T14:01:46.808Z,9.49
2022-12-23T14:04:33.413Z,9.53
2022-12-23T14:07:02.348Z,9.57
2022-12-23T14:09:38.335Z,9.60
2022-12-23T14:12:18.416Z,9.63
2022-12-23T14:15:02.259Z,9.63
2022-12-23T14:17:43.388Z,9.67
2022-12-23T14:20:36.086Z,9.66
2022-12-23T14:23:28.385Z,9.69
2022-12-23T14:26:14.802Z,9.74
2022-12-23T14:29:20.337Z,9.77
2022-12-23T14:31:55.132Z,9.79
2022-12-23T14:34:22.845Z,9.80
2022-12-23T14:37:15.767Z,9.81
2022-12-23T14:39:43.044Z,9.84
2022-12-23T14:42:18.149Z,9.81
2022-12-23T14:44:49.264Z,9.84
2022-12-23T14:47:40.151Z,9.89
2022-12-23T14:50:37.000Z,9.98
2022-12-23T14:53:24.403Z,10.04
2022-12-23T14:56:11.609Z,10.08
2022-12-23T15:01:50.488Z,10.10
2022-12-23T15:04:22.298Z,10.14
2022-12-23T15:06:56.356Z,10.15
2022-12-23T15:09:24.792Z,10.17
2022-12-23T15:11:54.548Z,10.18
2022-12-23T15:14:31.313Z,10.22
2022-12-23T15:16:58.140Z,10.20
2022-12-23T15:19:27.321Z,10.26
2022-12-23T15:22:22.265Z,10.25
2022-12-23T15:24:50.849Z,10.33
2022-12-23T15:27:28.927Z,10.38
2022-12-23T15:29:57.426Z,10.38
2022-12-23T15:32:25.210Z,10.44
2022-12-23T15:34:57.086Z,10.52
2022-12-23T15:37:29.647Z,10.52
2022-12-23T15:40:04.792Z,10.55
2022-12-23T15:42:39.245Z,10.52
2022-12-23T15:45:24.120Z,10.52
2022-12-23T15:47:50.925Z,10.52
2022-12-23T15:50:19.014Z,10.52
2022-12-23T15:52:48.624Z,10.56
2022-12-23T15:55:20.529Z,10.59
2022-12-23T15:57:50.731Z,10.65
2022-12-23T16:00:39.923Z,10.63
2022-12-23T16:03:18.719Z,10.66
2022-12-23T16:05:45.325Z,10.66
2022-12-23T16:08:16.617Z,10.69
2022-12-23T16:11:03.334Z,10.72
2022-12-23T16:13:29.865Z,10.75
2022-12-23T16:16:20.493Z,10.75
2022-12-23T16:18:47.799Z,10.80
2022-12-23T16:21:15.381Z,10.84
2022-12-23T16:23:50.080Z,10.83
2022-12-23T16:26:16.703Z,10.90
2022-12-23T16:28:46.494Z,10.90
2022-12-23T16:31:16.979Z,11.21
2022-12-23T16:33:48.174Z,11.99
2022-12-23T16:36:27.624Z,12.23
2022-12-23T16:38:59.530Z,12.41
2022-12-23T16:41:26.400Z,12.50
2022-12-23T16:43:53.358Z,12.61
2022-12-23T16:46:23.084Z,12.85
2022-12-23T16:48:55.982Z,12.98
2022-12-23T16:51:23.359Z,13.07
2022-12-23T16:53:51.004Z,13.12
2022-12-23T16:56:21.039Z,13.19
2022-12-23T16:58:47.768Z,13.19
2022-12-23T17:01:18.360Z,13.16
2022-12-23T17:03:44.751Z,13.15
2022-12-23T17:06:14.168Z,13.09
2022-12-23T17:08:41.050Z,13.06
2022-12-23T17:11:15.839Z,13.00
2022-12-23T17:13:42.435Z,12.93
2022-12-23T17:16:14.972Z,12.92
2022-12-23T17:18:41.841Z,12.84
2022-12-23T17:21:37.230Z,12.81
2022-12-23T17:24:15.893Z,12.91
2022-12-23T17:26:42.346Z,12.81
2022-12-23T17:29:11.537Z,12.69
2022-12-23T17:31:38.837Z,12.75
2022-12-23T17:34:11.556Z,12.79
2022-12-23T17:36:39.513Z,12.84
2022-12-23T17:39:10.037Z,12.82
2022-12-23T17:41:38.988Z,12.85
2022-12-23T17:44:06.156Z,12.95
2022-12-23T17:46:32.753Z,12.88
2022-12-23T17:48:59.514Z,12.89
2022-12-23T17:51:27.191Z,12.82
2022-12-23T17:54:00.500Z,12.88
2022-12-23T17:56:28.766Z,12.84
2022-12-23T17:58:55.238Z,12.89
2022-12-23T18:01:24.905Z,12.89
2022-12-23T18:03:51.841Z,12.84
2022-12-23T18:06:20.559Z,12.89
2022-12-23T18:08:47.102Z,12.89
2022-12-23T18:11:22.807Z,12.84
2022-12-23T18:13:53.785Z,12.78
2022-12-23T18:16:20.268Z,12.71
2022-12-23T18:18:47.273Z,12.78
2022-12-23T18:21:22.393Z,12.82
2022-12-23T18:23:49.644Z,12.78
2022-12-23T18:26:16.120Z,12.78
2022-12-23T18:28:43.480Z,12.72
2022-12-23T18:31:18.892Z,12.71
2022-12-23T18:33:46.120Z,12.69
2022-12-23T18:36:21.724Z,12.57
2022-12-23T18:38:48.463Z,12.57
2022-12-23T18:41:15.031Z,12.61
2022-12-23T18:43:41.472Z,12.60
2022-12-23T18:46:07.946Z,12.53
2022-12-23T18:48:34.350Z,12.51
2022-12-23T18:51:01.085Z,12.61
2022-12-23T18:53:27.769Z,12.54
2022-12-23T18:57:35.831Z,12.57
2022-12-23T19:00:07.592Z,12.55
2022-12-23T19:02:34.071Z,12.58
2022-12-23T19:05:00.617Z,12.63
2022-12-23T19:07:27.005Z,12.64
2022-12-23T19:09:53.462Z,12.67
2022-12-23T19:12:20.046Z,12.74
2022-12-23T19:14:46.413Z,12.68
2022-12-23T19:17:12.801Z,12.67
2022-12-23T19:19:40.501Z,12.64
2022-12-23T19:22:06.930Z,12.61
2022-12-23T19:24:33.375Z,12.63
2022-12-23T19:26:59.837Z,12.60
2022-12-23T19:29:26.473Z,12.58
2022-12-23T19:31:53.146Z,12.61
2022-12-23T19:34:19.527Z,12.65
2022-12-23T19:36:46.069Z,12.69
2022-12-23T19:39:16.350Z,12.60
2022-12-23T19:41:43.375Z,12.54
2022-12-23T19:44:09.987Z,12.54
2022-12-23T19:46:36.421Z,12.54
2022-12-23T19:49:02.951Z,12.57
2022-12-23T19:51:29.375Z,12.58
2022-12-23T19:53:55.869Z,12.53
2022-12-23T19:56:22.375Z,12.55
2022-12-23T19:58:49.954Z,12.54
2022-12-23T20:01:21.697Z,12.51
2022-12-23T20:03:49.003Z,12.54
2022-12-23T20:06:22.133Z,12.57
2022-12-23T20:08:49.001Z,12.61
2022-12-23T20:11:21.497Z,12.55
2022-12-23T20:13:54.533Z,12.60
2022-12-23T20:16:21.652Z,12.61
2022-12-23T20:18:49.588Z,12.67
2022-12-23T20:21:16.096Z,12.64
2022-12-23T20:23:42.850Z,12.64
2022-12-23T20:26:12.457Z,12.61
2022-12-23T20:28:38.979Z,12.63
2022-12-23T20:31:08.861Z,12.63
2022-12-23T20:33:36.922Z,12.64
2022-12-23T20:36:09.103Z,12.63
2022-12-23T20:38:40.196Z,12.61
2022-12-23T20:41:08.113Z,12.60
2022-12-23T20:43:35.051Z,12.60
2022-12-23T20:46:02.935Z,12.61
2022-12-23T20:48:33.819Z,12.60
2022-12-23T20:51:25.555Z,12.65
2022-12-23T20:53:55.141Z,12.61
2022-12-23T20:56:22.239Z,12.65
2022-12-23T20:58:54.595Z,12.74
2022-12-23T21:01:41.771Z,12.78
2022-12-23T21:04:12.032Z,12.69
2022-12-23T21:06:39.594Z,12.69
2022-12-23T21:09:09.197Z,12.67
2022-12-23T21:11:38.083Z,12.67
2022-12-23T21:14:07.454Z,12.63
2022-12-23T21:16:36.117Z,12.57
2022-12-23T21:19:03.264Z,12.58
2022-12-23T21:21:31.619Z,12.53
2022-12-23T21:24:00.411Z,12.55
2022-12-23T21:26:28.741Z,12.48
2022-12-23T21:28:59.209Z,12.46
2022-12-23T21:31:27.571Z,12.41
2022-12-23T21:33:54.351Z,12.44
2022-12-23T21:36:23.583Z,12.44
2022-12-23T21:38:50.880Z,12.41
2022-12-23T21:41:24.062Z,12.40
2022-12-23T21:43:51.330Z,12.43
2022-12-23T21:46:20.161Z,12.40
2022-12-23T21:48:47.831Z,12.30
2022-12-23T21:51:25.924Z,12.24
2022-12-23T21:53:57.780Z,12.21
2022-12-23T21:56:27.372Z,12.23
2022-12-23T21:59:05.409Z,12.20
2022-12-23T22:01:32.338Z,12.21
2022-12-23T22:03:58.944Z,12.21
2022-12-23T22:06:30.827Z,12.20
2022-12-23T22:08:58.207Z,12.16
2022-12-23T22:11:27.725Z,12.13
2022-12-23T22:13:56.372Z,12.13
2022-12-23T22:16:25.185Z,12.14
2022-12-23T22:18:53.025Z,12.18
2022-12-23T22:21:21.671Z,12.16
2022-12-23T22:23:49.060Z,12.16
2022-12-23T22:26:24.097Z,12.16
2022-12-23T22:28:53.931Z,12.20
2022-12-23T22:31:23.849Z,12.16
2022-12-23T22:33:50.305Z,12.16
2022-12-23T22:36:17.352Z,12.13
2022-12-23T22:38:44.386Z,12.13
2022-12-23T22:41:11.005Z,12.16
2022-12-23T22:43:37.800Z,12.17
2022-12-23T22:46:05.179Z,12.12
2022-12-23T22:48:33.068Z,12.16
2022-12-23T22:51:05.104Z,12.13
2022-12-23T22:53:32.303Z,12.12
2022-12-23T22:56:01.239Z,12.10
2022-12-23T22:58:29.012Z,12.14
2022-12-23T23:00:55.762Z,12.10
2022-12-23T23:03:22.497Z,12.12
2022-12-23T23:06:07.134Z,12.03
2022-12-23T23:08:34.745Z,12.06
2022-12-23T23:11:04.360Z,12.05
2022-12-23T23:13:33.468Z,12.03
2022-12-23T23:16:00.684Z,12.00
2022-12-23T23:18:28.531Z,12.03
2022-12-23T23:20:54.986Z,12.02
2022-12-23T23:23:21.411Z,12.02
2022-12-23T23:25:47.973Z,11.96
2022-12-23T23:28:14.974Z,11.97
2022-12-23T23:30:41.444Z,11.95
2022-12-23T23:33:10.605Z,11.92
2022-12-23T23:35:37.316Z,11.90
2022-12-23T23:38:04.219Z,11.90
2022-12-23T23:40:30.854Z,11.85
2022-12-23T23:42:57.298Z,11.86
2022-12-23T23:45:23.696Z,11.86
2022-12-23T23:47:50.242Z,11.85
2022-12-23T23:50:16.687Z,11.86
2022-12-23T23:52:43.226Z,11.81
2022-12-23T23:55:09.929Z,11.83
2022-12-23T23:57:36.396Z,11.78
